sensor_id;sensor_type;location;lat;lon;timestamp;pressure;altitude;pressure_sealevel;temperature;humidity
73063;BME280;61230;46.328;19.972;2023-06-05T00:00:32;100859.03;;;16.46;96.79
73063;BME280;61230;46.328;19.972;2023-06-05T00:03:00;100854.84;;;16.43;97.17
73063;BME280;61230;46.328;19.972;2023-06-05T00:05:28;100848.88;;;16.41;97.45
73063;BME280;61230;46.328;19.972;2023-06-05T00:07:57;100858.22;;;16.37;97.60
73063;BME280;61230;46.328;19.972;2023-06-05T00:10:24;100818.03;;;15.84;99.35
73063;BME280;61230;46.328;19.972;2023-06-05T00:12:52;100868.63;;;16.06;99.75
73063;BME280;61230;46.328;19.972;2023-06-05T00:15:19;100880.09;;;16.07;100.00
73063;BME280;61230;46.328;19.972;2023-06-05T00:17:47;100878.13;;;16.09;99.75
73063;BME280;61230;46.328;19.972;2023-06-05T00:20:15;100869.31;;;16.00;100.00
73063;BME280;61230;46.328;19.972;2023-06-05T00:22:43;100874.13;;;15.97;100.00
73063;BME280;61230;46.328;19.972;2023-06-05T00:25:12;100864.00;;;16.00;100.00
73063;BME280;61230;46.328;19.972;2023-06-05T00:27:39;100875.94;;;15.88;100.00
73063;BME280;61230;46.328;19.972;2023-06-05T00:30:08;100876.25;;;15.85;100.00
73063;BME280;61230;46.328;19.972;2023-06-05T00:32:37;100867.78;;;15.74;100.00
73063;BME280;61230;46.328;19.972;2023-06-05T00:35:06;100868.41;;;15.68;100.00
73063;BME280;61230;46.328;19.972;2023-06-05T00:37:34;100876.56;;;15.74;100.00
73063;BME280;61230;46.328;19.972;2023-06-05T00:40:04;100879.84;;;15.60;100.00
73063;BME280;61230;46.328;19.972;2023-06-05T00:42:31;100871.91;;;15.60;100.00
73063;BME280;61230;46.328;19.972;2023-06-05T00:45:00;100874.69;;;15.50;100.00
73063;BME280;61230;46.328;19.972;2023-06-05T00:47:27;100876.94;;;15.37;100.00
73063;BME280;61230;46.328;19.972;2023-06-05T00:49:55;100877.59;;;15.39;100.00
73063;BME280;61230;46.328;19.972;2023-06-05T00:52:24;100877.22;;;15.26;100.00
73063;BME280;61230;46.328;19.972;2023-06-05T00:54:52;100875.88;;;15.22;100.00
73063;BME280;61230;46.328;19.972;2023-06-05T00:57:20;100872.03;;;15.17;100.00
73063;BME280;61230;46.328;19.972;2023-06-05T00:59:54;100886.97;;;15.18;100.00
73063;BME280;61230;46.328;19.972;2023-06-05T01:02:22;100882.16;;;15.21;100.00
73063;BME280;61230;46.328;19.972;2023-06-05T01:04:50;100878.16;;;15.17;100.00
73063;BME280;61230;46.328;19.972;2023-06-05T01:07:18;100879.31;;;15.15;100.00
73063;BME280;61230;46.328;19.972;2023-06-05T01:09:48;100810.53;;;14.71;100.00
73063;BME280;61230;46.328;19.972;2023-06-05T01:12:30;100828.28;;;14.79;100.00
73063;BME280;61230;46.328;19.972;2023-06-05T01:15:01;100876.94;;;15.04;100.00
73063;BME280;61230;46.328;19.972;2023-06-05T01:17:30;100870.66;;;15.05;100.00
73063;BME280;61230;46.328;19.972;2023-06-05T01:20:01;100871.13;;;15.00;100.00
73063;BME280;61230;46.328;19.972;2023-06-05T01:22:35;100869.97;;;15.03;100.00
73063;BME280;61230;46.328;19.972;2023-06-05T01:25:06;100863.19;;;15.00;100.00
73063;BME280;61230;46.328;19.972;2023-06-05T01:27:41;100868.41;;;14.84;100.00
73063;BME280;61230;46.328;19.972;2023-06-05T01:30:26;100871.69;;;14.78;100.00
73063;BME280;61230;46.328;19.972;2023-06-05T01:33:04;100864.00;;;14.67;100.00
73063;BME280;61230;46.328;19.972;2023-06-05T01:35:34;100864.34;;;14.72;100.00
73063;BME280;61230;46.328;19.972;2023-06-05T01:38:04;100831.94;;;14.52;100.00
73063;BME280;61230;46.328;19.972;2023-06-05T01:40:34;100867.66;;;14.74;100.00
73063;BME280;61230;46.328;19.972;2023-06-05T01:43:03;100870.16;;;14.75;100.00
73063;BME280;61230;46.328;19.972;2023-06-05T01:45:33;100867.63;;;14.66;100.00
73063;BME280;61230;46.328;19.972;2023-06-05T01:48:07;100875.50;;;14.58;100.00
73063;BME280;61230;46.328;19.972;2023-06-05T01:50:36;100871.81;;;14.51;100.00
73063;BME280;61230;46.328;19.972;2023-06-05T01:53:05;100876.38;;;14.41;100.00
73063;BME280;61230;46.328;19.972;2023-06-05T01:55:33;100866.47;;;14.43;100.00
73063;BME280;61230;46.328;19.972;2023-06-05T01:58:01;100866.94;;;14.38;100.00
73063;BME280;61230;46.328;19.972;2023-06-05T02:00:28;100873.69;;;14.32;100.00
73063;BME280;61230;46.328;19.972;2023-06-05T02:02:56;100840.09;;;14.15;100.00
73063;BME280;61230;46.328;19.972;2023-06-05T02:05:24;100869.78;;;14.27;100.00
73063;BME280;61230;46.328;19.972;2023-06-05T02:07:51;100869.94;;;14.25;100.00
73063;BME280;61230;46.328;19.972;2023-06-05T02:10:26;100826.63;;;13.91;100.00
73063;BME280;61230;46.328;19.972;2023-06-05T02:12:54;100881.28;;;14.18;100.00
73063;BME280;61230;46.328;19.972;2023-06-05T02:15:22;100826.87;;;13.80;100.00
73063;BME280;61230;46.328;19.972;2023-06-05T02:17:50;100873.34;;;14.18;100.00
73063;BME280;61230;46.328;19.972;2023-06-05T02:20:24;100867.59;;;14.22;100.00
73063;BME280;61230;46.328;19.972;2023-06-05T02:22:52;100854.97;;;14.16;100.00
73063;BME280;61230;46.328;19.972;2023-06-05T02:25:20;100870.84;;;14.16;100.00
73063;BME280;61230;46.328;19.972;2023-06-05T02:27:49;100870.16;;;14.14;100.00
73063;BME280;61230;46.328;19.972;2023-06-05T02:30:17;100866.63;;;14.23;100.00
73063;BME280;61230;46.328;19.972;2023-06-05T02:32:45;100868.78;;;14.28;100.00
73063;BME280;61230;46.328;19.972;2023-06-05T02:35:14;100814.47;;;13.98;100.00
73063;BME280;61230;46.328;19.972;2023-06-05T02:37:41;100863.13;;;14.23;100.00
73063;BME280;61230;46.328;19.972;2023-06-05T02:40:13;100856.88;;;14.24;100.00
73063;BME280;61230;46.328;19.972;2023-06-05T02:42:41;100858.62;;;14.15;100.00
73063;BME280;61230;46.328;19.972;2023-06-05T02:45:09;100855.91;;;14.07;100.00
73063;BME280;61230;46.328;19.972;2023-06-05T02:47:37;100850.22;;;14.02;100.00
73063;BME280;61230;46.328;19.972;2023-06-05T02:50:06;100861.50;;;14.04;100.00
73063;BME280;61230;46.328;19.972;2023-06-05T02:52:35;100847.56;;;14.02;100.00
73063;BME280;61230;46.328;19.972;2023-06-05T02:55:03;100846.28;;;14.06;100.00
73063;BME280;61230;46.328;19.972;2023-06-05T02:57:33;100841.91;;;13.97;100.00
73063;BME280;61230;46.328;19.972;2023-06-05T03:00:12;100838.22;;;13.90;100.00
73063;BME280;61230;46.328;19.972;2023-06-05T03:02:45;100836.91;;;13.94;100.00
73063;BME280;61230;46.328;19.972;2023-06-05T03:05:18;100796.19;;;13.69;100.00
73063;BME280;61230;46.328;19.972;2023-06-05T03:07:46;100836.47;;;13.99;100.00
73063;BME280;61230;46.328;19.972;2023-06-05T03:10:13;100837.22;;;13.91;100.00
73063;BME280;61230;46.328;19.972;2023-06-05T03:12:41;100839.19;;;13.89;100.00
73063;BME280;61230;46.328;19.972;2023-06-05T03:15:09;100802.63;;;13.67;100.00
73063;BME280;61230;46.328;19.972;2023-06-05T03:17:40;100848.09;;;13.88;100.00
73063;BME280;61230;46.328;19.972;2023-06-05T03:20:09;100828.47;;;13.73;100.00
73063;BME280;61230;46.328;19.972;2023-06-05T03:22:38;100849.69;;;13.81;100.00
73063;BME280;61230;46.328;19.972;2023-06-05T03:25:07;100845.44;;;13.88;100.00
73063;BME280;61230;46.328;19.972;2023-06-05T03:27:36;100842.81;;;14.06;100.00
73063;BME280;61230;46.328;19.972;2023-06-05T03:30:05;100846.66;;;14.11;100.00
73063;BME280;61230;46.328;19.972;2023-06-05T03:32:33;100849.75;;;14.24;100.00
73063;BME280;61230;46.328;19.972;2023-06-05T03:35:01;100837.28;;;14.34;100.00
73063;BME280;61230;46.328;19.972;2023-06-05T03:37:29;100794.03;;;14.08;100.00
73063;BME280;61230;46.328;19.972;2023-06-05T03:39:56;100837.28;;;14.34;100.00
73063;BME280;61230;46.328;19.972;2023-06-05T03:42:24;100832.00;;;14.34;100.00
73063;BME280;61230;46.328;19.972;2023-06-05T03:44:52;100840.03;;;14.51;100.00
73063;BME280;61230;46.328;19.972;2023-06-05T03:47:19;100838.44;;;14.58;100.00
73063;BME280;61230;46.328;19.972;2023-06-05T03:49:48;100806.22;;;14.45;100.00
73063;BME280;61230;46.328;19.972;2023-06-05T03:52:17;100840.16;;;14.67;100.00
73063;BME280;61230;46.328;19.972;2023-06-05T03:54:51;100852.09;;;14.71;100.00
73063;BME280;61230;46.328;19.972;2023-06-05T03:57:22;100853.78;;;14.80;100.00
73063;BME280;61230;46.328;19.972;2023-06-05T03:59:50;100839.66;;;14.97;100.00
73063;BME280;61230;46.328;19.972;2023-06-05T04:02:18;100844.97;;;15.05;100.00
73063;BME280;61230;46.328;19.972;2023-06-05T04:04:46;100846.16;;;15.11;100.00
73063;BME280;61230;46.328;19.972;2023-06-05T04:07:13;100846.59;;;15.32;100.00
73063;BME280;61230;46.328;19.972;2023-06-05T04:09:41;100852.44;;;15.43;100.00
73063;BME280;61230;46.328;19.972;2023-06-05T04:12:09;100847.69;;;15.55;100.00
73063;BME280;61230;46.328;19.972;2023-06-05T04:14:42;100848.69;;;15.62;100.00
73063;BME280;61230;46.328;19.972;2023-06-05T04:17:10;100851.31;;;15.54;100.00
73063;BME280;61230;46.328;19.972;2023-06-05T04:19:38;100849.00;;;15.59;100.00
73063;BME280;61230;46.328;19.972;2023-06-05T04:22:06;100861.81;;;15.80;100.00
73063;BME280;61230;46.328;19.972;2023-06-05T04:24:34;100859.34;;;15.94;99.83
73063;BME280;61230;46.328;19.972;2023-06-05T04:27:02;100861.50;;;16.07;99.30
73063;BME280;61230;46.328;19.972;2023-06-05T04:29:30;100858.69;;;16.17;98.95
73063;BME280;61230;46.328;19.972;2023-06-05T04:32:00;100860.69;;;16.31;98.13
73063;BME280;61230;46.328;19.972;2023-06-05T04:34:28;100868.50;;;16.40;97.11
73063;BME280;61230;46.328;19.972;2023-06-05T04:36:56;100863.81;;;16.50;96.38
73063;BME280;61230;46.328;19.972;2023-06-05T04:39:24;100865.84;;;16.56;96.36
73063;BME280;61230;46.328;19.972;2023-06-05T04:41:51;100863.81;;;16.66;95.28
73063;BME280;61230;46.328;19.972;2023-06-05T04:44:39;100846.41;;;16.64;94.74
73063;BME280;61230;46.328;19.972;2023-06-05T04:47:07;100861.28;;;16.89;94.30
73063;BME280;61230;46.328;19.972;2023-06-05T04:49:35;100866.06;;;17.02;93.97
73063;BME280;61230;46.328;19.972;2023-06-05T04:52:04;100860.87;;;17.16;93.79
73063;BME280;61230;46.328;19.972;2023-06-05T04:54:32;100823.56;;;16.94;92.66
73063;BME280;61230;46.328;19.972;2023-06-05T04:57:00;100865.62;;;17.29;92.38
73063;BME280;61230;46.328;19.972;2023-06-05T04:59:29;100865.41;;;17.39;91.94
73063;BME280;61230;46.328;19.972;2023-06-05T05:02:00;100870.34;;;17.50;91.99
73063;BME280;61230;46.328;19.972;2023-06-05T05:04:29;100870.84;;;17.53;91.21
73063;BME280;61230;46.328;19.972;2023-06-05T05:06:57;100870.87;;;17.45;92.08
73063;BME280;61230;46.328;19.972;2023-06-05T05:09:30;100869.59;;;17.72;91.51
73063;BME280;61230;46.328;19.972;2023-06-05T05:11:59;100868.00;;;17.86;90.96
73063;BME280;61230;46.328;19.972;2023-06-05T05:14:27;100867.22;;;18.00;90.82
73063;BME280;61230;46.328;19.972;2023-06-05T05:16:56;100859.94;;;17.94;90.39
73063;BME280;61230;46.328;19.972;2023-06-05T05:19:24;100864.63;;;18.14;89.77
73063;BME280;61230;46.328;19.972;2023-06-05T05:21:52;100871.44;;;18.17;88.64
73063;BME280;61230;46.328;19.972;2023-06-05T05:24:20;100825.28;;;18.02;88.77
73063;BME280;61230;46.328;19.972;2023-06-05T05:26:48;100853.91;;;18.22;88.42
73063;BME280;61230;46.328;19.972;2023-06-05T05:29:16;100858.28;;;18.38;87.72
73063;BME280;61230;46.328;19.972;2023-06-05T05:31:44;100820.22;;;18.29;86.92
73063;BME280;61230;46.328;19.972;2023-06-05T05:34:12;100814.41;;;18.49;85.49
73063;BME280;61230;46.328;19.972;2023-06-05T05:36:40;100841.91;;;18.78;84.26
73063;BME280;61230;46.328;19.972;2023-06-05T05:39:08;100830.06;;;18.96;84.17
73063;BME280;61230;46.328;19.972;2023-06-05T05:41:36;100839.50;;;19.13;83.10
73063;BME280;61230;46.328;19.972;2023-06-05T05:44:03;100838.94;;;19.03;83.49
73063;BME280;61230;46.328;19.972;2023-06-05T05:46:31;100834.19;;;19.13;82.70
73063;BME280;61230;46.328;19.972;2023-06-05T05:48:59;100829.75;;;19.20;83.28
73063;BME280;61230;46.328;19.972;2023-06-05T05:51:27;100822.00;;;19.39;82.83
73063;BME280;61230;46.328;19.972;2023-06-05T05:53:56;100833.87;;;19.22;83.08
73063;BME280;61230;46.328;19.972;2023-06-05T05:56:24;100831.34;;;19.50;82.00
73063;BME280;61230;46.328;19.972;2023-06-05T05:58:52;100832.78;;;19.67;81.46
73063;BME280;61230;46.328;19.972;2023-06-05T06:01:19;100792.16;;;19.36;81.42
73063;BME280;61230;46.328;19.972;2023-06-05T06:03:49;100835.19;;;19.62;81.09
73063;BME280;61230;46.328;19.972;2023-06-05T06:06:17;100798.56;;;19.56;81.18
73063;BME280;61230;46.328;19.972;2023-06-05T06:08:45;100831.97;;;20.09;82.24
73063;BME280;61230;46.328;19.972;2023-06-05T06:11:13;100802.50;;;19.81;79.02
73063;BME280;61230;46.328;19.972;2023-06-05T06:13:41;100831.97;;;20.09;79.33
73063;BME280;61230;46.328;19.972;2023-06-05T06:16:11;100834.44;;;20.11;78.81
73063;BME280;61230;46.328;19.972;2023-06-05T06:18:39;100836.09;;;20.12;78.44
73063;BME280;61230;46.328;19.972;2023-06-05T06:21:07;100841.06;;;20.15;77.57
73063;BME280;61230;46.328;19.972;2023-06-05T06:23:36;100849.25;;;20.13;77.37
73063;BME280;61230;46.328;19.972;2023-06-05T06:26:04;100851.56;;;20.37;77.70
73063;BME280;61230;46.328;19.972;2023-06-05T06:28:33;100850.34;;;20.40;77.84
73063;BME280;61230;46.328;19.972;2023-06-05T06:31:01;100854.66;;;20.20;78.28
73063;BME280;61230;46.328;19.972;2023-06-05T06:33:31;100858.44;;;20.25;77.25
73063;BME280;61230;46.328;19.972;2023-06-05T06:35:59;100849.06;;;20.36;77.36
73063;BME280;61230;46.328;19.972;2023-06-05T06:38:27;100860.69;;;20.49;77.80
73063;BME280;61230;46.328;19.972;2023-06-05T06:40:58;100853.72;;;20.55;76.67
73063;BME280;61230;46.328;19.972;2023-06-05T06:43:26;100862.72;;;20.75;77.31
73063;BME280;61230;46.328;19.972;2023-06-05T06:45:56;100866.78;;;20.99;76.26
73063;BME280;61230;46.328;19.972;2023-06-05T06:48:24;100861.25;;;20.66;75.38
73063;BME280;61230;46.328;19.972;2023-06-05T06:50:51;100848.78;;;20.80;75.42
73063;BME280;61230;46.328;19.972;2023-06-05T06:53:19;100866.97;;;20.97;74.99
73063;BME280;61230;46.328;19.972;2023-06-05T06:55:47;100865.03;;;21.12;74.77
73063;BME280;61230;46.328;19.972;2023-06-05T06:58:18;100866.19;;;21.31;74.48
73063;BME280;61230;46.328;19.972;2023-06-05T07:00:46;100858.84;;;21.53;72.98
73063;BME280;61230;46.328;19.972;2023-06-05T07:03:15;100823.50;;;21.23;72.89
73063;BME280;61230;46.328;19.972;2023-06-05T07:05:43;100859.28;;;21.69;71.76
73063;BME280;61230;46.328;19.972;2023-06-05T07:08:11;100874.34;;;21.70;71.63
73063;BME280;61230;46.328;19.972;2023-06-05T07:10:39;100868.41;;;21.88;70.98
73063;BME280;61230;46.328;19.972;2023-06-05T07:13:07;100862.69;;;21.98;70.84
73063;BME280;61230;46.328;19.972;2023-06-05T07:15:35;100872.16;;;21.87;70.62
73063;BME280;61230;46.328;19.972;2023-06-05T07:18:03;100858.34;;;22.03;70.35
73063;BME280;61230;46.328;19.972;2023-06-05T07:20:31;100858.56;;;22.08;70.83
73063;BME280;61230;46.328;19.972;2023-06-05T07:22:58;100866.22;;;22.38;70.69
73063;BME280;61230;46.328;19.972;2023-06-05T07:25:27;100856.94;;;22.73;70.57
73063;BME280;61230;46.328;19.972;2023-06-05T07:27:55;100831.97;;;22.72;69.45
73063;BME280;61230;46.328;19.972;2023-06-05T07:30:23;100859.41;;;22.68;68.50
73063;BME280;61230;46.328;19.972;2023-06-05T07:32:51;100858.38;;;22.75;69.00
73063;BME280;61230;46.328;19.972;2023-06-05T07:35:18;100800.38;;;22.48;67.80
73063;BME280;61230;46.328;19.972;2023-06-05T07:37:46;100863.91;;;22.94;67.89
73063;BME280;61230;46.328;19.972;2023-06-05T07:40:14;100866.81;;;22.92;66.82
73063;BME280;61230;46.328;19.972;2023-06-05T07:42:41;100824.47;;;22.87;66.25
73063;BME280;61230;46.328;19.972;2023-06-05T07:45:10;100861.56;;;23.10;66.91
73063;BME280;61230;46.328;19.972;2023-06-05T07:47:37;100861.97;;;23.14;67.09
73063;BME280;61230;46.328;19.972;2023-06-05T07:50:06;100857.84;;;23.18;65.81
73063;BME280;61230;46.328;19.972;2023-06-05T07:52:35;100855.91;;;23.44;66.14
73063;BME280;61230;46.328;19.972;2023-06-05T07:55:04;100854.16;;;23.63;65.45
73063;BME280;61230;46.328;19.972;2023-06-05T07:57:33;100858.59;;;23.82;64.12
73063;BME280;61230;46.328;19.972;2023-06-05T08:00:02;100855.78;;;23.71;65.33
73063;BME280;61230;46.328;19.972;2023-06-05T08:02:38;100812.91;;;23.82;63.65
73063;BME280;61230;46.328;19.972;2023-06-05T08:05:07;100848.56;;;23.96;62.59
73063;BME280;61230;46.328;19.972;2023-06-05T08:07:35;100846.06;;;24.01;62.72
73063;BME280;61230;46.328;19.972;2023-06-05T08:10:03;100839.88;;;24.00;62.76
73063;BME280;61230;46.328;19.972;2023-06-05T08:12:31;100838.38;;;24.11;62.28
73063;BME280;61230;46.328;19.972;2023-06-05T08:14:58;100839.59;;;24.40;62.15
73063;BME280;61230;46.328;19.972;2023-06-05T08:17:28;100836.72;;;24.59;60.31
73063;BME280;61230;46.328;19.972;2023-06-05T08:19:56;100830.44;;;24.66;60.86
73063;BME280;61230;46.328;19.972;2023-06-05T08:22:24;100822.47;;;24.34;59.84
73063;BME280;61230;46.328;19.972;2023-06-05T08:24:51;100825.56;;;23.75;60.21
73063;BME280;61230;46.328;19.972;2023-06-05T08:27:21;100821.44;;;24.53;59.70
73063;BME280;61230;46.328;19.972;2023-06-05T08:29:49;100817.19;;;24.46;59.21
73063;BME280;61230;46.328;19.972;2023-06-05T08:32:18;100815.03;;;23.74;60.19
73063;BME280;61230;46.328;19.972;2023-06-05T08:34:48;100805.75;;;24.50;59.60
73063;BME280;61230;46.328;19.972;2023-06-05T08:37:16;100813.16;;;24.73;58.79
73063;BME280;61230;46.328;19.972;2023-06-05T08:39:44;100820.41;;;24.73;58.40
73063;BME280;61230;46.328;19.972;2023-06-05T08:42:12;100812.38;;;24.91;57.08
73063;BME280;61230;46.328;19.972;2023-06-05T08:44:42;100815.91;;;24.67;57.06
73063;BME280;61230;46.328;19.972;2023-06-05T08:47:29;100820.91;;;25.06;56.32
73063;BME280;61230;46.328;19.972;2023-06-05T08:50:03;100811.03;;;25.00;57.21
73063;BME280;61230;46.328;19.972;2023-06-05T08:52:37;100819.69;;;24.41;57.68
73063;BME280;61230;46.328;19.972;2023-06-05T08:55:05;100813.41;;;24.72;57.86
73063;BME280;61230;46.328;19.972;2023-06-05T08:57:35;100817.84;;;24.17;59.39
73063;BME280;61230;46.328;19.972;2023-06-05T09:00:06;100815.84;;;24.73;57.63
73063;BME280;61230;46.328;19.972;2023-06-05T09:02:40;100819.75;;;24.77;58.00
73063;BME280;61230;46.328;19.972;2023-06-05T09:05:11;100822.22;;;25.15;57.32
73063;BME280;61230;46.328;19.972;2023-06-05T09:07:39;100783.91;;;25.31;56.69
73063;BME280;61230;46.328;19.972;2023-06-05T09:10:25;100819.63;;;25.86;54.63
73063;BME280;61230;46.328;19.972;2023-06-05T09:12:59;100818.38;;;25.41;56.37
73063;BME280;61230;46.328;19.972;2023-06-05T09:15:28;100820.50;;;25.57;54.49
73063;BME280;61230;46.328;19.972;2023-06-05T09:18:07;100820.22;;;26.00;54.72
73063;BME280;61230;46.328;19.972;2023-06-05T09:20:40;100813.37;;;26.15;52.00
73063;BME280;61230;46.328;19.972;2023-06-05T09:23:26;100814.22;;;25.86;53.91
73063;BME280;61230;46.328;19.972;2023-06-05T09:25:58;100809.63;;;25.75;54.29
73063;BME280;61230;46.328;19.972;2023-06-05T09:28:27;100808.09;;;26.20;54.08
73063;BME280;61230;46.328;19.972;2023-06-05T09:30:59;100818.81;;;25.97;53.54
73063;BME280;61230;46.328;19.972;2023-06-05T09:33:32;100811.69;;;26.03;53.96
73063;BME280;61230;46.328;19.972;2023-06-05T09:36:12;100817.75;;;26.16;52.31
73063;BME280;61230;46.328;19.972;2023-06-05T09:38:41;100809.50;;;26.23;50.90
73063;BME280;61230;46.328;19.972;2023-06-05T09:41:10;100811.06;;;26.42;50.95
73063;BME280;61230;46.328;19.972;2023-06-05T09:43:38;100776.75;;;26.08;51.94
73063;BME280;61230;46.328;19.972;2023-06-05T09:46:10;100806.00;;;26.34;52.56
73063;BME280;61230;46.328;19.972;2023-06-05T09:48:40;100799.47;;;26.00;52.82
73063;BME280;61230;46.328;19.972;2023-06-05T09:51:15;100786.63;;;26.60;51.20
73063;BME280;61230;46.328;19.972;2023-06-05T09:53:52;100792.84;;;26.49;51.37
73063;BME280;61230;46.328;19.972;2023-06-05T09:56:21;100784.75;;;26.61;50.74
73063;BME280;61230;46.328;19.972;2023-06-05T09:58:50;100747.78;;;26.61;49.78
73063;BME280;61230;46.328;19.972;2023-06-05T10:01:21;100778.31;;;26.50;51.10
73063;BME280;61230;46.328;19.972;2023-06-05T10:04:00;100788.00;;;25.93;52.44
73063;BME280;61230;46.328;19.972;2023-06-05T10:06:28;100747.91;;;26.32;50.91
73063;BME280;61230;46.328;19.972;2023-06-05T10:08:56;100776.66;;;26.26;49.88
73063;BME280;61230;46.328;19.972;2023-06-05T10:11:26;100763.88;;;26.21;50.37
73063;BME280;61230;46.328;19.972;2023-06-05T10:13:54;100773.38;;;26.70;50.34
73063;BME280;61230;46.328;19.972;2023-06-05T10:16:22;100770.13;;;26.22;50.57
73063;BME280;61230;46.328;19.972;2023-06-05T10:18:55;100773.28;;;26.42;50.28
73063;BME280;61230;46.328;19.972;2023-06-05T10:21:24;100769.97;;;26.28;50.55
73063;BME280;61230;46.328;19.972;2023-06-05T10:23:59;100765.03;;;26.02;51.14
73063;BME280;61230;46.328;19.972;2023-06-05T10:38:23;100747.84;;;26.78;49.01
73063;BME280;61230;46.328;19.972;2023-06-05T10:40:54;100738.94;;;26.77;50.16
73063;BME280;61230;46.328;19.972;2023-06-05T10:43:24;100752.94;;;27.14;49.78
73063;BME280;61230;46.328;19.972;2023-06-05T10:45:53;100748.97;;;27.05;48.48
73063;BME280;61230;46.328;19.972;2023-06-05T10:54:06;100739.44;;;27.14;48.49
73063;BME280;61230;46.328;19.972;2023-06-05T10:56:56;100741.19;;;27.98;47.21
73063;BME280;61230;46.328;19.972;2023-06-05T10:59:36;100729.66;;;27.86;47.77
73063;BME280;61230;46.328;19.972;2023-06-05T11:07:16;100734.53;;;27.56;47.48
73063;BME280;61230;46.328;19.972;2023-06-05T11:15:15;100723.56;;;28.29;46.49
73063;BME280;61230;46.328;19.972;2023-06-05T11:17:46;100715.06;;;28.21;46.40
73063;BME280;61230;46.328;19.972;2023-06-05T11:23:08;100690.75;;;28.26;46.16
73063;BME280;61230;46.328;19.972;2023-06-05T11:25:37;100716.22;;;27.75;47.30
73063;BME280;61230;46.328;19.972;2023-06-05T11:28:05;100725.56;;;27.39;48.60
73063;BME280;61230;46.328;19.972;2023-06-05T11:33:11;100715.47;;;27.63;48.32
73063;BME280;61230;46.328;19.972;2023-06-05T11:35:45;100714.41;;;27.47;48.64
73063;BME280;61230;46.328;19.972;2023-06-05T11:38:15;100677.34;;;27.48;48.00
73063;BME280;61230;46.328;19.972;2023-06-05T11:40:47;100714.75;;;27.11;48.32
73063;BME280;61230;46.328;19.972;2023-06-05T11:43:15;100709.19;;;27.01;49.20
73063;BME280;61230;46.328;19.972;2023-06-05T11:45:57;100710.59;;;26.52;50.27
73063;BME280;61230;46.328;19.972;2023-06-05T11:48:25;100710.97;;;26.95;50.23
73063;BME280;61230;46.328;19.972;2023-06-05T11:51:01;100703.06;;;27.22;49.73
73063;BME280;61230;46.328;19.972;2023-06-05T11:53:31;100705.91;;;27.27;49.71
73063;BME280;61230;46.328;19.972;2023-06-05T11:55:59;100692.19;;;27.17;49.81
73063;BME280;61230;46.328;19.972;2023-06-05T11:58:37;100697.50;;;26.83;50.05
73063;BME280;61230;46.328;19.972;2023-06-05T12:01:16;100663.00;;;26.62;50.27
73063;BME280;61230;46.328;19.972;2023-06-05T12:04:11;100690.44;;;26.71;50.16
73063;BME280;61230;46.328;19.972;2023-06-05T12:06:46;100688.03;;;26.58;50.73
73063;BME280;61230;46.328;19.972;2023-06-05T12:09:19;100686.34;;;26.68;51.24
73063;BME280;61230;46.328;19.972;2023-06-05T12:11:47;100675.91;;;26.72;51.09
73063;BME280;61230;46.328;19.972;2023-06-05T12:14:41;100681.81;;;26.57;51.66
73063;BME280;61230;46.328;19.972;2023-06-05T12:17:12;100679.38;;;26.56;51.52
73063;BME280;61230;46.328;19.972;2023-06-05T12:19:39;100648.41;;;26.47;51.88
73063;BME280;61230;46.328;19.972;2023-06-05T12:22:08;100681.81;;;26.57;52.01
73063;BME280;61230;46.328;19.972;2023-06-05T12:24:37;100646.94;;;26.27;52.26
73063;BME280;61230;46.328;19.972;2023-06-05T12:27:05;100656.41;;;26.30;51.82
73063;BME280;61230;46.328;19.972;2023-06-05T12:29:36;100677.63;;;26.38;52.07
73063;BME280;61230;46.328;19.972;2023-06-05T12:32:23;100670.13;;;26.40;51.98
73063;BME280;61230;46.328;19.972;2023-06-05T12:34:52;100670.50;;;26.20;52.75
73063;BME280;61230;46.328;19.972;2023-06-05T12:37:26;100675.88;;;25.97;53.05
73063;BME280;61230;46.328;19.972;2023-06-05T12:40:00;100637.69;;;25.65;53.31
73063;BME280;61230;46.328;19.972;2023-06-05T12:42:33;100669.56;;;25.92;53.66
73063;BME280;61230;46.328;19.972;2023-06-05T12:45:06;100668.75;;;25.80;54.06
73063;BME280;61230;46.328;19.972;2023-06-05T12:47:36;100651.84;;;25.73;54.60
73063;BME280;61230;46.328;19.972;2023-06-05T12:50:05;100667.69;;;25.81;54.49
73063;BME280;61230;46.328;19.972;2023-06-05T12:52:33;100666.63;;;25.82;54.88
73063;BME280;61230;46.328;19.972;2023-06-05T12:55:01;100662.28;;;25.69;55.28
73063;BME280;61230;46.328;19.972;2023-06-05T12:57:31;100656.88;;;25.57;55.84
73063;BME280;61230;46.328;19.972;2023-06-05T13:00:03;100655.59;;;25.83;55.51
73063;BME280;61230;46.328;19.972;2023-06-05T13:02:44;100651.97;;;25.89;54.83
73063;BME280;61230;46.328;19.972;2023-06-05T13:05:16;100657.25;;;26.19;54.50
73063;BME280;61230;46.328;19.972;2023-06-05T13:07:44;100604.44;;;26.11;54.10
73063;BME280;61230;46.328;19.972;2023-06-05T13:10:13;100610.91;;;26.10;53.81
73063;BME280;61230;46.328;19.972;2023-06-05T13:12:43;100638.34;;;26.42;53.29
73063;BME280;61230;46.328;19.972;2023-06-05T13:15:11;100650.37;;;26.51;53.41
73063;BME280;61230;46.328;19.972;2023-06-05T13:17:39;100641.34;;;26.46;54.04
73063;BME280;61230;46.328;19.972;2023-06-05T13:20:07;100642.69;;;26.32;54.41
73063;BME280;61230;46.328;19.972;2023-06-05T13:22:42;100640.28;;;26.58;53.38
73063;BME280;61230;46.328;19.972;2023-06-05T13:25:09;100638.94;;;26.72;53.40